地図

経路データ

SID SEASON NUMBER BASIN SUBBASIN NAME ISO_TIME NATURE LAT LON WMO_WIND WMO_PRES WMO_AGENCY TRACK_TYPE DIST2LAND LANDFALL IFLAG USA_AGENCY USA_ATCF_ID USA_LAT USA_LON USA_RECORD USA_STATUS USA_WIND USA_PRES USA_SSHS USA_R34_NE USA_R34_SE USA_R34_SW USA_R34_NW USA_R50_NE USA_R50_SE USA_R50_SW USA_R50_NW USA_R64_NE USA_R64_SE USA_R64_SW USA_R64_NW USA_POCI USA_ROCI USA_RMW USA_EYE TOKYO_LAT TOKYO_LON TOKYO_GRADE TOKYO_WIND TOKYO_PRES TOKYO_R50_DIR TOKYO_R50_LONG TOKYO_R50_SHORT TOKYO_R30_DIR TOKYO_R30_LONG TOKYO_R30_SHORT TOKYO_LAND CMA_LAT CMA_LON CMA_CAT CMA_WIND CMA_PRES HKO_LAT HKO_LON HKO_CAT HKO_WIND HKO_PRES NEWDELHI_LAT NEWDELHI_LON NEWDELHI_GRADE NEWDELHI_WIND NEWDELHI_PRES NEWDELHI_CI NEWDELHI_DP NEWDELHI_POCI REUNION_LAT REUNION_LON REUNION_TYPE REUNION_WIND REUNION_PRES REUNION_TNUM REUNION_CI REUNION_RMW REUNION_R34_NE REUNION_R34_SE REUNION_R34_SW REUNION_R34_NW REUNION_R50_NE REUNION_R50_SE REUNION_R50_SW REUNION_R50_NW REUNION_R64_NE REUNION_R64_SE REUNION_R64_SW REUNION_R64_NW BOM_LAT BOM_LON BOM_TYPE BOM_WIND BOM_PRES BOM_TNUM BOM_CI BOM_RMW BOM_R34_NE BOM_R34_SE BOM_R34_SW BOM_R34_NW BOM_R50_NE BOM_R50_SE BOM_R50_SW BOM_R50_NW BOM_R64_NE BOM_R64_SE BOM_R64_SW BOM_R64_NW BOM_ROCI BOM_POCI BOM_EYE BOM_POS_METHOD BOM_PRES_METHOD NADI_LAT NADI_LON NADI_CAT NADI_WIND NADI_PRES WELLINGTON_LAT WELLINGTON_LON WELLINGTON_WIND WELLINGTON_PRES DS824_LAT DS824_LON DS824_STAGE DS824_WIND DS824_PRES TD9636_LAT TD9636_LON TD9636_STAGE TD9636_WIND TD9636_PRES TD9635_LAT TD9635_LON TD9635_WIND TD9635_PRES TD9635_ROCI NEUMANN_LAT NEUMANN_LON NEUMANN_CLASS NEUMANN_WIND NEUMANN_PRES MLC_LAT MLC_LON MLC_CLASS MLC_WIND MLC_PRES USA_GUST BOM_GUST BOM_GUST_PER REUNION_GUST REUNION_GUST_PER USA_SEAHGT USA_SEARAD_NE USA_SEARAD_SE USA_SEARAD_SW USA_SEARAD_NW STORM_SPEED STORM_DIR
1949200N12156 1949 45 WP MM HESTER 1949-07-19 00:00:00 TS 11.7000 155.600 main 1695 1691 O________OOO__ jtwc_wp WP061949 11.7000 155.600 15 -1 11.7000 155.600 TC 15 11.7000 155.600 1 15 11.7000 155.600 15 1005 60 9 296
1949200N12156 1949 45 WP MM HESTER 1949-07-19 03:00:00 TS 11.8922 155.207 main 1703 1700 P________PPP__ WP061949 11.8776 155.220 15 -1 11.8776 155.220 TC 15 11.9363 155.168 1 16 11.8776 155.220 15 1005 60 9 298
1949200N12156 1949 45 WP MM HESTER 1949-07-19 06:00:00 TS 12.1195 154.782 main 1713 1710 O________OPO__ jtwc_wp WP061949 12.1000 154.800 15 -1 12.1000 154.800 TC 15 12.1778 154.728 1 17 12.1000 154.800 15 1005 60 10 300
1949200N12156 1949 45 WP MM HESTER 1949-07-19 09:00:00 TS 12.4020 154.305 main 1733 1730 P________PPP__ WP061949 12.3925 154.315 17 -1 12.3925 154.315 TC 17 12.4305 154.274 1 18 12.3925 154.315 17 1005 60 11 301
1949200N12156 1949 45 WP MM HESTER 1949-07-19 12:00:00 TS 12.7000 153.800 main 1754 1752 O________OOO__ jtwc_wp WP061949 12.7000 153.800 20 -1 12.7000 153.800 TC 20 12.7000 153.800 1 20 12.7000 153.800 20 1005 60 11 299
1949200N12156 1949 45 WP MM HESTER 1949-07-19 15:00:00 TS 12.9542 153.300 main 1778 1775 P________PPP__ WP061949 12.9424 153.300 20 -1 12.9424 153.300 TC 20 12.9897 153.302 1 21 12.9424 153.300 20 1005 60 11 298
1949200N12156 1949 45 WP MM HESTER 1949-07-19 18:00:00 TS 13.2231 152.798 main 1793 1793 O________OPO__ jtwc_wp WP061949 13.2000 152.800 20 -1 13.2000 152.800 TC 20 13.2925 152.793 1 22 13.2000 152.800 20 1005 60 12 301
1949200N12156 1949 45 WP MM HESTER 1949-07-19 21:00:00 TS 13.5566 152.285 main 1832 1831 P________PPP__ WP061949 13.5425 152.285 22 -1 13.5425 152.285 TC 22 13.5991 152.287 1 23 13.5425 152.285 22 1005 60 12 305
1949200N12156 1949 45 WP MM HESTER 1949-07-20 00:00:00 TS 13.9000 151.800 main 1857 1857 O________OOO__ jtwc_wp WP061949 13.9000 151.800 25 -1 13.9000 151.800 TC 25 13.9000 151.800 1 25 13.9000 151.800 25 1005 60 11 307
1949200N12156 1949 45 WP MM HESTER 1949-07-20 03:00:00 TS 14.2106 151.382 main 1878 1876 P________PPP__ WP061949 14.2148 151.392 25 -1 14.2148 151.392 TC 25 14.1980 151.349 1 26 14.2148 151.392 25 1005 60 10 307
1949200N12156 1949 45 WP MM HESTER 1949-07-20 06:00:00 TS 14.4967 150.980 main 1901 1899 O________OPO__ jtwc_wp WP061949 14.5000 151.000 25 -1 14.5000 151.000 TC 25 14.4870 150.920 1 27 14.5000 151.000 25 1005 60 10 304
1949200N12156 1949 45 WP MM HESTER 1949-07-20 09:00:00 TS 14.7631 150.533 main 1923 1921 P________PPP__ WP061949 14.7650 150.542 27 -1 14.7650 150.542 TC 27 14.7575 150.506 1 28 14.7650 150.542 27 1004 60 10 301
1949200N12156 1949 45 WP MM HESTER 1949-07-20 12:00:00 TS 15.0000 150.100 main 1938 1936 O________OOO__ jtwc_wp WP061949 15.0000 150.100 30 -1 15.0000 150.100 TC 30 15.0000 150.100 1 30 15.0000 150.100 30 1004 60 9 300
1949200N12156 1949 45 WP MM HESTER 1949-07-20 15:00:00 TS 15.2130 149.732 main 1954 1954 P________PPP__ WP061949 15.2148 149.750 30 -1 15.2148 149.750 TC 30 15.2077 149.680 1 31 15.2148 149.750 30 1004 60 8 299
1949200N12156 1949 45 WP MM HESTER 1949-07-20 18:00:00 TS 15.3968 149.367 main 1972 1971 O________OPO__ jtwc_wp WP061949 15.4000 149.400 30 -1 15.4000 149.400 TC 30 15.3873 149.270 1 32 15.4000 149.400 30 1004 60 8 294
1949200N12156 1949 45 WP MM HESTER 1949-07-20 21:00:00 TS 15.5553 148.931 main 1989 1987 P________PPP__ WP061949 15.5576 148.950 32 -1 15.5576 148.950 TC 32 15.5483 148.874 1 33 15.5576 148.950 32 1003 60 9 290
1949200N12156 1949 45 WP MM HESTER 1949-07-21 00:00:00 TS 15.7000 148.500 main 1997 1997 O________OOO__ jtwc_wp WP061949 15.7000 148.500 35 0 15.7000 148.500 TC 35 15.7000 148.500 2 35 15.7000 148.500 35 1003 60 8 291
1949200N12156 1949 45 WP MM HESTER 1949-07-21 03:00:00 TS 15.8536 148.137 main 2017 2017 P________PPP__ WP061949 15.8499 148.127 35 0 15.8499 148.127 TC 35 15.8649 148.165 2 36 15.8499 148.127 35 1002 90 7 295
1949200N12156 1949 45 WP MM HESTER 1949-07-21 06:00:00 TS 16.0055 147.812 main 2028 2027 O________OPO__ jtwc_wp WP061949 16.0000 147.800 35 0 16.0000 147.800 TC 35 16.0219 147.850 2 37 16.0000 147.800 35 1001 120 7 297
1949200N12156 1949 45 WP MM HESTER 1949-07-21 09:00:00 TS 16.1600 147.509 main 2049 2049 P________PPP__ WP061949 16.1574 147.500 37 0 16.1574 147.500 TC 37 16.1680 147.534 2 38 16.1574 147.500 37 1000 120 7 297
1949200N12156 1949 45 WP MM HESTER 1949-07-21 12:00:00 TS 16.3000 147.200 main 2061 2061 O________OOO__ jtwc_wp WP061949 16.3000 147.200 40 0 16.3000 147.200 TC 40 16.3000 147.200 2 40 16.3000 147.200 40 999 120 7 292
1949200N12156 1949 45 WP MM HESTER 1949-07-21 15:00:00 TS 16.4123 146.852 main 2072 2072 P________PPP__ WP061949 16.4074 146.872 45 0 16.4074 146.872 TC 45 16.4269 146.789 2 45 16.4074 146.872 45 997 120 7 287
1949200N12156 1949 45 WP MM HESTER 1949-07-21 18:00:00 TS 16.5095 146.466 main 2083 2083 O________OPO__ jtwc_wp WP061949 16.5000 146.500 50 0 16.5000 146.500 TC 50 16.5380 146.363 2 50 16.5000 146.500 50 995 120 8 284
1949200N12156 1949 45 WP MM HESTER 1949-07-21 21:00:00 TS 16.6133 146.009 main 2095 2095 P________PPP__ WP061949 16.6077 146.028 55 0 16.6077 146.028 TC 55 16.6300 145.955 2 55 16.6077 146.028 55 993 120 9 283
1949200N12156 1949 45 WP MM HESTER 1949-07-22 00:00:00 TS 16.7000 145.600 main 2107 2088 O________OOO__ jtwc_wp WP061949 16.7000 145.600 60 0 16.7000 145.600 TC 60 16.7000 145.600 2 60 16.7000 145.600 60 992 120 6 284
1949200N12156 1949 45 WP MM HESTER 1949-07-22 03:00:00 TS 16.7662 145.357 main 2088 2079 P________PPP__ WP061949 16.7648 145.362 65 1 16.7648 145.362 TC 65 16.7705 145.342 2 65 16.7648 145.362 65 989 120 4 285
1949200N12156 1949 45 WP MM HESTER 1949-07-22 06:00:00 TS 16.8042 145.185 main 2079 2070 O________OPO__ jtwc_wp WP061949 16.8000 145.200 70 1 16.8000 145.200 TC 70 16.8169 145.140 2 70 16.8000 145.200 70 987 120 4 279
1949200N12156 1949 45 WP MM HESTER 1949-07-22 09:00:00 TS 16.8187 144.992 main 2070 2061 P________PPP__ WP061949 16.8150 145.000 75 1 16.8150 145.000 TC 75 16.8300 144.968 2 75 16.8150 145.000 75 983 120 4 269
1949200N12156 1949 45 WP MM HESTER 1949-07-22 12:00:00 TS 16.8000 144.800 main 2061 2052 O________OOO__ jtwc_wp WP061949 16.8000 144.800 80 1 16.8000 144.800 TC 80 16.8000 144.800 3 80 16.8000 144.800 80 980 120 4 262
1949200N12156 1949 45 WP MM HESTER 1949-07-22 15:00:00 TS 16.7656 144.590 main 2052 2052 P________PPP__ WP061949 16.7800 144.600 87 2 16.7800 144.600 TC 87 16.7223 144.559 3 87 16.7800 144.600 87 975 150 5 251
1949200N12156 1949 45 WP MM HESTER 1949-07-22 18:00:00 TS 16.6477 144.341 main 2060 2056 O_O______OPO__ jtwc_wp WP061949 16.7000 144.400 95 2 16.2000 143.700 3 48 988 16.7000 144.400 TC 95 16.6027 144.325 3 95 16.7000 144.400 95 970 180 6 241
1949200N12156 1949 45 WP MM HESTER 1949-07-22 21:00:00 TS 16.4904 144.080 main 2060 2037 P_P______PPP__ WP061949 16.5150 144.162 102 3 16.4100 143.493 3 53 987 16.5150 144.162 TC 102 16.4567 144.128 3 102 16.5150 144.162 102 968 180 5 235
1949200N12156 1949 45 WP MM HESTER 1949-07-23 00:00:00 TS 16.3474 143.889 main 2035 2024 O_O______OOO__ jtwc_wp WP061949 16.3000 144.000 110 3 16.6000 143.300 3 58 986 16.3000 144.000 TC 110 16.3000 144.000 4 110 16.3000 144.000 110 966 180 3 228
1949200N12156 1949 45 WP MM HESTER 1949-07-23 03:00:00 TS 16.2660 143.823 main 2024 2022 P_P______PPP__ WP061949 16.1425 144.013 100 3 16.7700 143.135 3 58 985 16.1425 144.013 TC 100 16.1326 143.942 4 103 16.1425 144.013 100 968 210 2 192
1949200N12156 1949 45 WP MM HESTER 1949-07-23 06:00:00 TS 16.1924 143.852 main 2033 2031 O_O______OPO__ jtwc_wp WP061949 16.0000 144.100 90 2 17.0000 143.000 3 58 984 16.0000 144.100 TC 90 15.9621 143.958 4 97 16.0000 144.100 90 971 240 1 159
1949200N12156 1949 45 WP MM HESTER 1949-07-23 09:00:00 TS 16.1431 143.866 main 2031 2029 P_P______PPP__ WP061949 15.8425 144.135 87 2 17.3775 142.878 3 58 983 15.8425 144.135 TC 87 15.8107 144.045 4 91 15.8425 144.135 87 973 240 2 0
1949200N12156 1949 45 WP MM HESTER 1949-07-23 12:00:00 TS 16.0095 143.857 main 2029 2027 O_O______OOO__ jtwc_wp WP061949 15.7000 144.200 85 2 17.8000 142.800 3 58 982 15.7000 144.200 TC 85 15.7000 144.200 4 85 15.7000 144.200 85 976 240 2 166
1949200N12156 1949 45 WP MM HESTER 1949-07-23 15:00:00 TS 15.9191 143.916 main 2027 2027 P_P______PPP__ WP061949 15.5624 144.298 82 1 18.1500 142.763 3 63 981 15.5624 144.298 TC 82 15.5395 144.439 4 82 15.5624 144.298 82 977 240 2 110
1949200N12156 1949 45 WP MM HESTER 1949-07-23 18:00:00 TS 15.9341 144.070 main 2035 2035 O_O______OPO__ jtwc_wp WP061949 15.5000 144.500 80 1 18.5000 142.800 4 68 980 15.5000 144.500 TC 80 15.4381 144.736 4 80 15.5000 144.500 80 979 240 4 72
1949200N12156 1949 45 WP MM HESTER 1949-07-23 21:00:00 TS 16.0445 144.329 main 2043 2043 P_P______PPP__ WP061949 15.4801 144.870 77 1 18.9000 142.920 4 68 980 15.4801 144.870 TC 77 15.4677 145.039 4 77 15.4801 144.870 77 980 240 7 53
1949200N12156 1949 45 WP MM HESTER 1949-07-24 00:00:00 TS 16.3500 144.650 main 2082 2055 O_O______OOO__ jtwc_wp WP061949 15.7000 145.300 75 1 19.3000 143.100 4 68 980 15.7000 145.300 TC 75 15.7000 145.300 4 75 15.7000 145.300 75 982 240 10 36
1949200N12156 1949 45 WP MM HESTER 1949-07-24 03:00:00 TS 16.8850 144.957 main 2060 2008 P_P______PPP__ WP061949 16.3026 145.731 67 1 19.6500 143.293 4 68 980 16.3026 145.731 TC 67 16.2205 145.517 4 71 16.3026 145.731 67 983 270 13 22
1949200N12156 1949 45 WP MM HESTER 1949-07-24 06:00:00 TS 17.5495 145.166 main 2008 1937 O_O______OPO__ jtwc_wp WP061949 17.1000 146.000 60 0 20.0000 143.500 4 68 980 17.1000 146.000 TC 60 16.9398 145.677 4 67 17.1000 146.000 60 984 300 14 9
1949200N12156 1949 45 WP MM HESTER 1949-07-24 09:00:00 TS 18.2142 145.189 main 1937 1869 P_P______PPP__ WP061949 17.8499 145.941 60 0 20.3925 143.722 4 68 980 17.8499 145.941 TC 60 17.7642 145.748 4 63 17.8499 145.941 60 985 270 13 356
1949200N12156 1949 45 WP MM HESTER 1949-07-24 12:00:00 TS 18.8833 145.083 main 1858 1791 O_O______OOO__ jtwc_wp WP061949 18.6000 145.700 60 0 20.8000 143.900 4 68 980 18.6000 145.700 TC 60 18.6000 145.700 2 60 18.6000 145.700 60 987 240 13 350
1949200N12156 1949 45 WP MM HESTER 1949-07-24 15:00:00 TS 19.5069 144.948 main 1788 1718 P_P______PPP__ WP061949 19.3074 145.487 60 0 21.2075 143.995 4 68 980 19.3074 145.487 TC 60 19.3073 145.511 2 57 19.3074 145.487 60 987 240 13 345
1949200N12156 1949 45 WP MM HESTER 1949-07-24 18:00:00 TS 20.1200 144.732 main 1718 1648 O_O______OPO__ jtwc_wp WP061949 20.0000 145.200 60 0 21.6000 144.000 4 68 980 20.0000 145.200 TC 60 20.0077 145.201 2 55 20.0000 145.200 60 988 240 13 339
1949200N12156 1949 45 WP MM HESTER 1949-07-24 21:00:00 TS 20.7335 144.436 main 1645 1572 P_P______PPP__ WP061949 20.7000 144.822 55 0 21.9575 143.923 4 68 980 20.7000 144.822 TC 55 20.7042 144.816 2 52 20.7000 144.822 55 989 240 14 334
1949200N12156 1949 45 WP MM HESTER 1949-07-25 00:00:00 TS 21.3500 144.100 main 1561 1488 O_O______OOO__ jtwc_wp WP061949 21.4000 144.400 50 0 22.3000 143.800 4 68 980 21.4000 144.400 TC 50 21.4000 144.400 2 50 21.4000 144.400 50 990 240 14 334
1949200N12156 1949 45 WP MM HESTER 1949-07-25 03:00:00 TS 21.9872 143.783 main 1488 1415 P_P______PPP__ WP061949 22.0999 144.000 50 0 22.6274 143.722 4 68 980 22.0999 144.000 TC 50 22.1777 143.989 2 52 22.0999 144.000 50 991 240 14 335
1949200N12156 1949 45 WP MM HESTER 1949-07-25 06:00:00 TS 22.6356 143.452 main 1415 1328 O_O______OPO__ jtwc_wp WP061949 22.8000 143.600 50 0 23.0000 143.600 4 68 980 22.8000 143.600 TC 50 22.9435 143.561 2 55 22.8000 143.600 50 992 240 15 334
1949200N12156 1949 45 WP MM HESTER 1949-07-25 09:00:00 TS 23.3170 143.095 main 1328 1255 P_P______PPP__ WP061949 23.5525 143.178 55 0 23.4699 143.395 4 68 980 23.5525 143.178 TC 55 23.6375 143.153 2 57 23.5525 143.178 55 992 240 15 334
1949200N12156 1949 45 WP MM HESTER 1949-07-25 12:00:00 TS 23.9333 142.750 main 1255 1192 O_O______OOO__ jtwc_wp WP061949 24.2000 142.800 60 0 24.0000 143.100 4 68 980 24.2000 142.800 TC 60 24.2000 142.800 2 60 24.2000 142.800 60 992 240 12 332
1949200N12156 1949 45 WP MM HESTER 1949-07-25 15:00:00 TS 24.4016 142.453 main 1192 1141 P_P______PPP__ WP061949 24.5948 142.519 62 0 24.5722 142.760 4 68 980 24.5948 142.519 TC 62 24.5759 142.526 2 62 24.5948 142.519 62 992 240 10 329
1949200N12156 1949 45 WP MM HESTER 1949-07-25 18:00:00 TS 24.8067 142.172 main 1141 1088 O_O______OOO__ jtwc_wp WP061949 24.9000 142.300 65 1 25.1000 142.300 4 68 980 24.9000 142.300 TC 65 24.9000 142.300 3 65 24.9000 142.300 65 993 240 10 328
1949200N12156 1949 45 WP MM HESTER 1949-07-25 21:00:00 TS 25.2417 141.873 main 1088 1034 P_P______PPP__ WP061949 25.2999 142.100 65 1 25.4956 141.650 4 63 980 25.2999 142.100 TC 65 25.2967 142.094 3 65 25.2999 142.100 65 993 240 10 328
1949200N12156 1949 45 WP MM HESTER 1949-07-26 00:00:00 TS 25.6500 141.583 main 1025 981 O_O______OOO__ jtwc_wp WP061949 25.7000 141.900 65 1 25.8000 141.000 3 58 980 25.7000 141.900 TC 65 25.7000 141.900 4 65 25.7000 141.900 65 994 240 9 326
1949200N12156 1949 45 WP MM HESTER 1949-07-26 03:00:00 TS 26.0026 141.306 main 981 942 P_P______PPP__ WP061949 26.0575 141.650 65 1 26.0722 140.525 3 58 980 26.0575 141.650 TC 65 26.0627 141.688 4 65 26.0575 141.650 65 994 270 8 325
1949200N12156 1949 45 WP MM HESTER 1949-07-26 06:00:00 TS 26.3252 141.059 main 942 903 O_O______OPO__ jtwc_wp WP061949 26.4000 141.400 65 1 26.3000 140.200 3 58 980 26.4000 141.400 TC 65 26.4067 141.466 4 65 26.4000 141.400 65 995 300 7 328
1949200N12156 1949 45 WP MM HESTER 1949-07-26 09:00:00 TS 26.6338 140.865 main 903 864 P_P______PPP__ WP061949 26.7349 141.200 65 1 26.4923 140.020 3 58 980 26.7349 141.200 TC 65 26.7473 141.237 4 65 26.7349 141.200 65 995 300 7 332
1949200N12156 1949 45 WP MM HESTER 1949-07-26 12:00:00 TS 26.9667 140.683 main 854 815 O_O______OOO__ jtwc_wp WP061949 27.1000 141.000 65 1 26.7000 139.900 3 58 980 27.1000 141.000 TC 65 27.1000 141.000 4 65 27.1000 141.000 65 995 300 8 334
1949200N12156 1949 45 WP MM HESTER 1949-07-26 15:00:00 TS 27.3677 140.467 main 806 758 P_P______PPP__ WP061949 27.5500 140.758 55 0 26.9550 139.700 3 58 980 27.5500 140.758 TC 55 27.4937 140.757 4 60 27.5500 140.758 55 995 270 9 336
1949200N12156 1949 45 WP MM HESTER 1949-07-26 18:00:00 TS 27.8051 140.255 main 758 710 O_O______OPO__ jtwc_wp WP061949 28.0000 140.500 45 0 27.3000 139.500 3 58 980 28.0000 140.500 TC 45 27.8999 140.507 4 55 28.0000 140.500 45 996 240 9 336
1949200N12156 1949 45 WP MM HESTER 1949-07-26 21:00:00 TS 28.2226 140.045 main 704 656 P_P______PPP__ WP061949 28.3649 140.250 45 0 27.7850 139.335 3 58 982 28.3649 140.250 TC 45 28.3062 140.254 4 50 28.3649 140.250 45 996 240 9 336
1949200N12156 1949 45 WP MM HESTER 1949-07-27 00:00:00 TS 28.6190 139.833 main 656 609 O_O______OOO__ jtwc_wp WP061949 28.7000 140.000 45 0 28.3000 139.200 3 58 984 28.7000 140.000 TC 45 28.7000 140.000 2 45 28.7000 140.000 45 996 240 8 334
1949200N12156 1949 45 WP MM HESTER 1949-07-27 03:00:00 TS 28.9794 139.618 main 609 570 P_P______PPP__ WP061949 29.0500 139.750 42 0 28.7075 139.077 3 53 985 29.0500 139.750 TC 42 29.0396 139.765 2 43 29.0500 139.750 42 996 240 8 332
1949200N12156 1949 45 WP MM HESTER 1949-07-27 06:00:00 TS 29.3339 139.406 main 570 523 O_O______OPO__ jtwc_wp WP061949 29.4000 139.500 40 0 29.1000 139.000 3 48 987 29.4000 139.500 TC 40 29.3695 139.528 2 42 29.4000 139.500 40 997 240 8 334
1949200N12156 1949 45 WP MM HESTER 1949-07-27 09:00:00 TS 29.6893 139.215 main 523 476 P_P______PPP__ WP061949 29.7273 139.272 40 0 29.5500 138.985 3 48 988 29.7273 139.272 TC 40 29.7146 139.277 2 41 29.7273 139.272 40 997 240 8 335
1949200N12156 1949 45 WP MM HESTER 1949-07-27 12:00:00 TS 30.0800 139.000 main 476 423 O_O______OOO__ jtwc_wp WP061949 30.1000 139.000 40 0 30.0000 139.000 3 48 990 30.1000 139.000 TC 40 30.1000 139.000 2 40 30.1000 139.000 40 998 240 10 333
1949200N12156 1949 45 WP MM HESTER 1949-07-27 15:00:00 TS 30.5334 138.708 main 423 362 P_P______PPP__ WP061949 30.5777 138.608 40 0 30.3849 139.052 3 48 992 30.5777 138.608 TC 40 30.5491 138.667 2 40 30.5777 138.608 40 998 210 11 331
1949200N12156 1949 45 WP MM HESTER 1949-07-27 18:00:00 TS 31.0281 138.382 main 362 302 O_O______OPO__ jtwc_wp WP061949 31.1000 138.200 40 0 30.8000 139.000 3 48 994 31.1000 138.200 TC 40 31.0405 138.308 2 40 31.1000 138.200 40 998 180 12 331
1949200N12156 1949 45 WP MM HESTER 1949-07-27 21:00:00 TS 31.5407 138.066 main 302 243 P_P______PPP__ WP061949 31.5998 137.892 40 0 31.3426 138.711 3 43 994 31.5998 137.892 TC 40 31.5616 137.945 2 40 31.5998 137.892 40 998 180 12 332
1949200N12156 1949 45 WP MM HESTER 1949-07-28 00:00:00 TS 32.0600 137.740 main 229 178 O_O______OOO__ jtwc_wp WP061949 32.1000 137.600 40 0 31.9000 138.300 2 38 995 32.1000 137.600 TC 40 32.1000 137.600 2 40 32.1000 137.600 40 999 180 12 330
1949200N12156 1949 45 WP MM HESTER 1949-07-28 03:00:00 TS 32.5531 137.381 main 171 122 P_P______PPP__ WP061949 32.5851 137.235 40 0 32.3649 137.907 2 38 995 32.5851 137.235 TC 40 32.6454 137.291 2 37 32.5851 137.235 40 999 150 12 329
1949200N12156 1949 45 WP MM HESTER 1949-07-28 06:00:00 TS 33.0518 137.044 main 108 64 O_O______OPO__ jtwc_wp WP061949 33.1000 136.900 40 0 32.8000 137.500 2 38 996 33.1000 136.900 TC 40 33.1948 137.011 2 35 33.1000 136.900 40 1000 120 12 333
1949200N12156 1949 45 WP MM HESTER 1949-07-28 09:00:00 TS 33.5935 136.756 main 64 22 P_P______PPP__ WP061949 33.6849 136.648 35 0 33.2425 137.085 2 38 996 33.6849 136.648 TC 35 33.7469 136.752 2 32 33.6849 136.648 35 1000 120 12 339
1949200N12156 1949 45 WP MM HESTER 1949-07-28 12:00:00 TS 34.1286 136.557 main 22 0 O_O______OOO__ jtwc_wp WP061949 34.3000 136.500 30 -1 33.7000 136.700 2 38 997 34.3000 136.500 TC 30 34.3000 136.500 1 30 34.3000 136.500 30 1001 120 11 345
1949200N12156 1949 45 WP MM HESTER 1949-07-28 15:00:00 TS 34.6110 136.425 main 0 0 P_P______P_P__ WP061949 34.9050 136.467 25 -1 34.1699 136.362 2 38 997 34.9050 136.467 TC 25 1 34.9050 136.467 25 1001 120 9 346
1949200N12156 1949 45 WP MM HESTER 1949-07-28 18:00:00 TS 35.0429 136.271 main 0 0 O_O______O_O__ jtwc_wp WP061949 35.5000 136.500 20 -1 34.7000 136.100 2 38 998 35.5000 136.500 TC 20 1 35.5000 136.500 20 1002 120 9 331
1949200N12156 1949 45 WP MM HESTER 1949-07-28 21:00:00 TS 35.3649 135.912 main 0 0 __P___________ WP061949 -1 35.3649 135.912 2 33 1000 TC 1 10 338
1949200N12156 1949 45 WP MM HESTER 1949-07-29 00:00:00 TS 36.0000 135.800 main 17 17 __O___________ -1 36.0000 135.800 1 29 1002 11 352
1949200N12156 1949 45 WP MM HESTER 1949-07-29 03:00:00 TS 36.4575 135.737 main 42 42 __P___________ -1 36.4575 135.737 1 1004 8 354
1949200N12156 1949 45 WP MM HESTER 1949-07-29 06:00:00 TS 36.8000 135.700 main 66 __O___________ -1 36.8000 135.700 0 1006 7 353

デジタル台風データ・検索

IBTrACS Databaseについて

本データベースは、米国NOAAが公開する1842年以降の世界の熱帯低気圧のベストトラックデータアーカイブInternational Best Track Archive for Climate Stewardship (IBTrACS)を、ウェブで閲覧しやすい形式に変換したものです。

最終更新日:2021-12-03